メインページ
METAR-TAF:

METAR-TAF

空港 :

Harriman-and-West Airport

North Adams, マサチューセッツ州, アメリカ合衆国

緯度: 42-41-50N, 経度: 073-10-13W, 海抜: 199m

現時点の気象観測

当レポートは17分前の05:52(UTC)に作成
無風
気温 7°C
湿度 87%
気圧 1014 hPa
視程: 16.1km
高度2600ftの曇り

METAR: KAQW 040552Z AUTO 00000KT 10SM OVC026 07/05 A2994 RMK AO2 SLP142 60000 T00720050 10078 20067 53006

時間: 02:09 (06:09 UTC)


TAF: 見つかりません

4,000以上の空港の気象観測と天気予報(METAR報とTAF報)

利用可能な観測所は地図上に黄色い丸と赤い丸で示す。

丸の上にカーソルを重ねると観測所名を参照できる。

次にクリックすると気象観測と天気予報を参照できる。

マップの切り替え:黒色「×」印の緑ボタンをクリックして拡大、「-」印の緑ボタンをクリックして縮小、緑色の三角印をクリックして隣りの地図に切り替え


METAR-TAF: